createdAt,value
2018-04-15T00:00:22.792Z,98.10
2018-04-15T00:02:50.308Z,97.90
2018-04-15T00:05:17.795Z,97.70
2018-04-15T00:07:45.291Z,97.80
2018-04-15T00:10:12.771Z,97.90
2018-04-15T00:12:41.063Z,97.80
2018-04-15T00:15:08.551Z,97.80
2018-04-15T00:17:36.055Z,98.00
2018-04-15T00:20:03.519Z,97.90
2018-04-15T00:22:31.011Z,97.90
2018-04-15T00:24:59.245Z,98.10
2018-04-15T00:27:26.739Z,98.10
2018-04-15T00:29:54.987Z,98.10
2018-04-15T00:32:22.446Z,98.00
2018-04-15T00:34:49.913Z,98.00
2018-04-15T00:37:18.188Z,98.10
2018-04-15T00:39:45.641Z,98.00
2018-04-15T00:42:13.097Z,98.00
2018-04-15T00:44:40.571Z,98.00
2018-04-15T00:47:08.827Z,98.00
2018-04-15T00:49:36.332Z,98.00
2018-04-15T00:52:03.835Z,97.90
2018-04-15T00:54:31.352Z,98.10
2018-04-15T00:56:58.823Z,98.20
2018-04-15T00:59:26.335Z,98.10
2018-04-15T01:01:54.561Z,98.10
2018-04-15T01:04:22.039Z,98.10
2018-04-15T01:06:49.539Z,98.00
2018-04-15T01:09:17.027Z,97.80
2018-04-15T01:11:44.500Z,97.60
2018-04-15T01:14:11.949Z,97.50
2018-04-15T01:16:39.443Z,97.50
2018-04-15T01:19:06.953Z,97.40
2018-04-15T01:21:34.417Z,97.50
2018-04-15T01:24:01.920Z,97.60
2018-04-15T01:26:30.159Z,98.00
2018-04-15T01:28:57.617Z,97.90
2018-04-15T01:31:25.854Z,98.10
2018-04-15T01:33:53.363Z,98.50
2018-04-15T01:36:20.855Z,98.30
2018-04-15T01:38:48.359Z,98.40
2018-04-15T01:41:15.867Z,98.60
2018-04-15T01:43:44.135Z,98.70
2018-04-15T01:46:12.392Z,98.70
2018-04-15T01:48:39.905Z,98.70
2018-04-15T01:51:07.400Z,98.60
2018-04-15T01:53:34.900Z,98.60
2018-04-15T01:56:02.415Z,98.50
2018-04-15T01:58:29.903Z,98.30
2018-04-15T02:00:58.155Z,98.60
2018-04-15T02:03:25.669Z,98.60
2018-04-15T02:05:53.163Z,98.60
2018-04-15T02:08:20.663Z,98.60
2018-04-15T02:10:48.172Z,98.60
2018-04-15T02:13:15.625Z,98.10
2018-04-15T02:15:43.149Z,98.10
2018-04-15T02:18:10.643Z,98.30
2018-04-15T02:20:38.107Z,98.60
2018-04-15T02:23:05.622Z,98.70
2018-04-15T02:25:33.115Z,98.60
2018-04-15T02:28:00.602Z,98.60
2018-04-15T02:30:28.111Z,98.60
2018-04-15T02:32:55.616Z,98.80
2018-04-15T02:35:23.871Z,98.80
2018-04-15T02:37:51.342Z,98.40
2018-04-15T02:40:18.835Z,98.50
2018-04-15T02:42:46.324Z,98.50
2018-04-15T02:45:13.839Z,98.40
2018-04-15T02:47:42.124Z,98.30
2018-04-15T02:50:09.577Z,98.30
2018-04-15T02:52:37.042Z,98.50
2018-04-15T02:55:04.552Z,98.50
2018-04-15T02:57:32.043Z,98.50
2018-04-15T03:00:00.319Z,98.20
2018-04-15T03:02:28.535Z,98.10
2018-04-15T03:04:56.062Z,98.10
2018-04-15T03:07:23.636Z,98.00
2018-04-15T03:09:51.013Z,98.20
2018-04-15T03:12:18.485Z,98.30
2018-04-15T03:14:45.991Z,98.30
2018-04-15T03:17:13.461Z,98.40
2018-04-15T03:19:40.969Z,98.40
2018-04-15T03:22:08.471Z,98.50
2018-04-15T03:24:35.968Z,98.70
2018-04-15T03:27:03.413Z,98.70
2018-04-15T03:29:31.171Z,98.70
2018-04-15T03:31:58.667Z,98.80
2018-04-15T03:34:26.172Z,99.20
2018-04-15T03:36:53.646Z,98.90
2018-04-15T03:39:21.107Z,98.90
2018-04-15T03:41:48.599Z,98.90
2018-04-15T03:44:16.875Z,98.90
2018-04-15T03:46:45.146Z,99.00
2018-04-15T03:49:12.593Z,98.90
2018-04-15T03:51:40.110Z,99.10
2018-04-15T03:54:07.592Z,99.10
2018-04-15T03:56:35.073Z,99.00
2018-04-15T03:59:02.587Z,99.00
2018-04-15T04:01:30.039Z,99.00
2018-04-15T04:03:57.506Z,99.10
2018-04-15T04:06:24.989Z,99.20
2018-04-15T04:08:52.444Z,99.20
2018-04-15T04:11:19.955Z,99.20
2018-04-15T04:13:47.430Z,99.20
2018-04-15T04:16:14.924Z,99.10
2018-04-15T04:18:54.259Z,99.00
2018-04-15T04:21:33.599Z,99.00
2018-04-15T04:24:12.852Z,99.00
2018-04-15T04:26:41.135Z,99.30
2018-04-15T04:29:09.395Z,99.30
2018-04-15T04:31:37.655Z,99.40
2018-04-15T04:34:05.168Z,99.30
2018-04-15T04:36:32.658Z,99.40
2018-04-15T04:39:00.126Z,99.30
2018-04-15T04:41:27.599Z,99.40
2018-04-15T04:43:55.864Z,99.40
2018-04-15T04:46:23.362Z,99.40
2018-04-15T04:48:50.833Z,99.40
2018-04-15T04:51:18.327Z,99.50
2018-04-15T04:53:45.819Z,99.30
2018-04-15T04:56:14.090Z,99.20
2018-04-15T04:58:42.320Z,99.10
2018-04-15T05:01:09.832Z,99.00
2018-04-15T05:03:38.070Z,98.50
2018-04-15T05:06:05.563Z,98.50
2018-04-15T05:08:33.815Z,98.20
2018-04-15T05:11:01.324Z,98.20
2018-04-15T05:13:28.813Z,97.90
2018-04-15T05:15:56.313Z,97.50
2018-04-15T05:18:23.817Z,97.70
2018-04-15T05:20:51.272Z,96.90
2018-04-15T05:23:18.766Z,96.50
2018-04-15T05:25:46.283Z,96.10
2018-04-15T05:28:13.783Z,96.20
2018-04-15T05:30:42.063Z,95.90
2018-04-15T05:33:10.289Z,96.20
2018-04-15T05:35:37.803Z,96.20
2018-04-15T05:38:06.019Z,95.30
2018-04-15T05:40:33.499Z,95.30
2018-04-15T05:43:01.016Z,95.10
2018-04-15T05:45:28.474Z,95.80
2018-04-15T05:47:55.976Z,96.50
2018-04-15T05:50:23.486Z,96.30
2018-04-15T05:52:50.991Z,96.60
2018-04-15T05:55:18.522Z,96.40
2018-04-15T05:57:46.024Z,95.60
2018-04-15T06:00:13.526Z,95.10
2018-04-15T06:02:41.036Z,95.20
2018-04-15T06:05:09.279Z,94.40
2018-04-15T06:07:36.922Z,94.40
2018-04-15T06:10:04.441Z,93.90
2018-04-15T06:12:31.922Z,93.00
2018-04-15T06:14:59.546Z,92.40
2018-04-15T06:17:27.798Z,91.90
2018-04-15T06:19:55.309Z,91.90
2018-04-15T06:22:22.802Z,90.40
2018-04-15T06:24:50.311Z,89.80
2018-04-15T06:27:17.900Z,89.90
2018-04-15T06:29:45.386Z,87.20
2018-04-15T06:32:12.902Z,84.30
2018-04-15T06:34:40.473Z,83.20
2018-04-15T06:37:07.925Z,81.70
2018-04-15T06:39:35.417Z,81.50
2018-04-15T06:42:02.949Z,80.10
2018-04-15T06:44:30.456Z,78.80
2018-04-15T06:46:57.956Z,77.10
2018-04-15T06:49:25.470Z,78.20
2018-04-15T06:51:52.962Z,80.10
2018-04-15T06:54:20.463Z,79.50
2018-04-15T06:56:47.941Z,80.30
2018-04-15T06:59:15.442Z,78.60
2018-04-15T07:01:42.897Z,76.60
2018-04-15T07:04:10.379Z,76.90
2018-04-15T07:06:37.880Z,79.20
2018-04-15T07:09:06.109Z,76.50
2018-04-15T07:11:33.627Z,76.40
2018-04-15T07:14:01.955Z,74.90
2018-04-15T07:16:29.421Z,73.80
2018-04-15T07:18:56.936Z,73.20
2018-04-15T07:21:24.397Z,72.20
2018-04-15T07:23:51.881Z,73.90
2018-04-15T07:26:19.394Z,74.00
2018-04-15T07:28:47.669Z,75.00
2018-04-15T07:31:15.195Z,75.00
2018-04-15T07:33:42.826Z,70.80
2018-04-15T07:36:11.100Z,64.70
2018-04-15T07:38:38.631Z,64.70
2018-04-15T07:41:06.159Z,64.00
2018-04-15T07:43:33.662Z,58.50
2018-04-15T07:46:02.188Z,58.60
2018-04-15T07:48:30.490Z,57.50
2018-04-15T07:50:58.003Z,57.50
2018-04-15T07:53:25.559Z,55.80
2018-04-15T07:55:53.075Z,54.80
2018-04-15T07:58:20.634Z,55.40
2018-04-15T08:00:49.092Z,54.30
2018-04-15T08:03:17.398Z,55.80
2018-04-15T08:05:44.853Z,55.80
2018-04-15T08:08:12.406Z,56.10
2018-04-15T08:10:39.879Z,57.90
2018-04-15T08:13:07.395Z,57.60
2018-04-15T08:15:34.951Z,56.30
2018-04-15T08:18:02.439Z,58.00
2018-04-15T08:20:31.925Z,58.90
2018-04-15T08:23:00.228Z,60.80
2018-04-15T08:25:27.733Z,60.80
2018-04-15T08:27:55.248Z,60.30
2018-04-15T08:30:22.796Z,60.90
2018-04-15T08:32:50.274Z,59.00
2018-04-15T08:35:17.743Z,59.90
2018-04-15T08:37:45.226Z,58.80
2018-04-15T08:40:12.728Z,58.90
2018-04-15T08:42:40.231Z,60.20
2018-04-15T08:45:08.482Z,59.50
2018-04-15T08:47:35.955Z,59.50
2018-04-15T08:50:03.491Z,58.90
2018-04-15T08:52:30.984Z,58.80
2018-04-15T08:54:58.483Z,58.10
2018-04-15T08:57:26.759Z,61.30
2018-04-15T08:59:54.221Z,61.20
2018-04-15T09:02:28.671Z,57.10
2018-04-15T09:04:56.130Z,62.40
2018-04-15T09:07:23.602Z,64.50
2018-04-15T09:09:51.091Z,63.10
2018-04-15T09:12:18.584Z,57.60
2018-04-15T09:14:46.089Z,63.70
2018-04-15T09:17:14.397Z,63.70
2018-04-15T09:19:45.003Z,63.00
2018-04-15T09:22:12.473Z,63.60
2018-04-15T09:24:40.745Z,63.80
2018-04-15T09:27:08.282Z,63.70
2018-04-15T09:29:42.236Z,60.80
2018-04-15T09:32:09.737Z,63.20
2018-04-15T09:34:37.244Z,66.90
2018-04-15T09:37:04.715Z,61.60
2018-04-15T09:39:32.217Z,64.90
2018-04-15T09:42:00.619Z,62.30
2018-04-15T09:44:28.907Z,62.70
2018-04-15T09:46:57.169Z,65.00
2018-04-15T09:49:25.398Z,59.00
2018-04-15T09:51:52.944Z,58.90
2018-04-15T09:54:20.460Z,62.50
2018-04-15T09:56:48.719Z,61.00
2018-04-15T09:59:16.244Z,61.00
2018-04-15T10:01:44.434Z,60.20
2018-04-15T10:04:11.895Z,60.40
2018-04-15T10:06:39.370Z,56.70
2018-04-15T10:09:06.871Z,59.10
2018-04-15T10:11:34.378Z,58.40
2018-04-15T10:14:02.196Z,58.10
2018-04-15T10:16:29.691Z,58.30
2018-04-15T10:18:57.193Z,57.40
2018-04-15T10:21:25.483Z,60.40
2018-04-15T10:23:52.944Z,60.20
2018-04-15T10:26:20.436Z,57.60
2018-04-15T10:28:47.956Z,53.60
2018-04-15T10:31:15.471Z,56.10
2018-04-15T10:33:42.938Z,56.80
2018-04-15T10:36:11.223Z,55.00
2018-04-15T10:38:39.455Z,56.10
2018-04-15T10:41:06.921Z,56.00
2018-04-15T10:43:34.451Z,55.60
2018-04-15T10:46:01.945Z,55.10
2018-04-15T10:48:29.412Z,55.70
2018-04-15T10:50:56.939Z,55.30
2018-04-15T10:53:24.403Z,54.80
2018-04-15T10:55:51.887Z,55.90
2018-04-15T10:58:19.399Z,54.30
2018-04-15T11:00:46.853Z,54.50
2018-04-15T11:03:14.313Z,54.50
2018-04-15T11:05:41.809Z,55.10
2018-04-15T11:08:09.265Z,56.00
2018-04-15T11:10:36.788Z,55.70
2018-04-15T11:13:04.313Z,55.60
2018-04-15T11:15:31.883Z,54.90
2018-04-15T11:17:59.428Z,56.50
2018-04-15T11:20:27.722Z,57.40
2018-04-15T11:22:55.220Z,57.40
2018-04-15T11:25:22.755Z,55.60
2018-04-15T11:27:50.234Z,55.00
2018-04-15T11:30:17.734Z,53.20
2018-04-15T11:32:45.255Z,54.00
2018-04-15T11:35:14.076Z,52.80
2018-04-15T11:37:42.297Z,53.70
2018-04-15T11:40:09.766Z,53.70
2018-04-15T11:42:37.292Z,53.10
2018-04-15T11:45:04.805Z,56.90
2018-04-15T11:47:33.045Z,55.80
2018-04-15T11:50:00.542Z,55.70
2018-04-15T11:52:28.816Z,56.50
2018-04-15T11:54:56.320Z,56.40
2018-04-15T11:57:23.839Z,54.80
2018-04-15T11:59:52.104Z,54.70
2018-04-15T12:02:19.613Z,54.70
2018-04-15T12:04:47.903Z,59.00
2018-04-15T12:07:15.399Z,58.50
2018-04-15T12:09:42.861Z,57.40
2018-04-15T12:12:11.189Z,55.50
2018-04-15T12:14:38.735Z,55.50
2018-04-15T12:17:07.018Z,55.30
2018-04-15T12:19:34.490Z,55.30
2018-04-15T12:22:02.006Z,58.20
2018-04-15T12:24:29.524Z,56.40
2018-04-15T12:26:57.054Z,57.20
2018-04-15T12:29:24.505Z,55.10
2018-04-15T12:31:52.029Z,58.00
2018-04-15T12:34:19.530Z,57.70
2018-04-15T12:36:47.040Z,58.10
2018-04-15T12:39:15.265Z,58.80
2018-04-15T12:41:42.791Z,58.70
2018-04-15T12:44:11.052Z,57.20
2018-04-15T12:46:39.322Z,55.60
2018-04-15T12:49:07.632Z,55.70
2018-04-15T12:51:35.139Z,55.70
2018-04-15T12:54:02.613Z,57.50
2018-04-15T12:56:30.090Z,56.50
2018-04-15T12:58:57.588Z,56.90
2018-04-15T13:01:25.096Z,57.40
2018-04-15T13:03:53.315Z,55.60
2018-04-15T13:06:20.783Z,55.60
2018-04-15T13:08:48.274Z,58.40
2018-04-15T13:11:16.548Z,55.50
2018-04-15T13:13:44.016Z,55.50
2018-04-15T13:16:12.296Z,55.80
2018-04-15T13:18:40.522Z,54.90
2018-04-15T13:21:08.027Z,54.80
2018-04-15T13:23:36.324Z,55.60
2018-04-15T13:26:03.826Z,55.60
2018-04-15T13:28:31.318Z,55.10
2018-04-15T13:30:59.599Z,55.10
2018-04-15T13:33:27.863Z,55.50
2018-04-15T13:35:56.119Z,55.80
2018-04-15T13:38:23.589Z,55.70
2018-04-15T13:40:51.871Z,55.00
2018-04-15T13:43:20.148Z,53.20
2018-04-15T13:45:48.433Z,52.70
2018-04-15T13:48:16.659Z,54.20
2018-04-15T13:50:44.898Z,53.00
2018-04-15T13:53:12.387Z,52.90
2018-04-15T13:55:39.841Z,54.00
2018-04-15T13:58:07.321Z,54.30
2018-04-15T14:00:34.798Z,53.70
2018-04-15T14:03:03.067Z,54.00
2018-04-15T14:05:30.541Z,54.00
2018-04-15T14:07:58.769Z,53.90
2018-04-15T14:10:26.242Z,53.90
2018-04-15T14:12:53.728Z,54.00
2018-04-15T14:15:21.954Z,52.40
2018-04-15T14:17:49.498Z,52.20
2018-04-15T14:20:17.012Z,52.30
2018-04-15T14:22:45.255Z,54.10
2018-04-15T14:25:12.769Z,54.00
2018-04-15T14:27:40.287Z,52.90
2018-04-15T14:30:08.559Z,52.50
2018-04-15T14:32:36.062Z,52.50
2018-04-15T14:35:03.583Z,55.20
2018-04-15T14:37:31.055Z,53.70
2018-04-15T14:39:59.330Z,52.80
2018-04-15T14:42:27.632Z,53.30
2018-04-15T14:44:55.121Z,53.20
2018-04-15T14:47:22.633Z,51.20
2018-04-15T14:49:50.878Z,52.90
2018-04-15T14:52:18.375Z,52.80
2018-04-15T14:54:45.866Z,52.20
2018-04-15T14:57:13.342Z,51.80
2018-04-15T14:59:40.806Z,51.40
2018-04-15T15:02:08.262Z,51.80
2018-04-15T15:04:35.789Z,52.10
2018-04-15T15:07:03.293Z,52.50
2018-04-15T15:09:31.558Z,50.50
2018-04-15T15:11:59.043Z,50.50
2018-04-15T15:14:26.512Z,50.40
2018-04-15T15:16:54.011Z,52.30
2018-04-15T15:19:21.600Z,51.50
2018-04-15T15:21:49.054Z,51.30
2018-04-15T15:24:16.657Z,51.60
2018-04-15T15:26:44.130Z,50.60
2018-04-15T15:29:11.635Z,53.80
2018-04-15T15:31:39.857Z,54.50
2018-04-15T15:34:07.351Z,54.30
2018-04-15T15:36:34.810Z,55.50
2018-04-15T15:39:02.274Z,56.20
2018-04-15T15:41:29.796Z,55.90
2018-04-15T15:43:57.287Z,57.00
2018-04-15T15:46:24.750Z,53.30
2018-04-15T15:48:52.266Z,56.70
2018-04-15T15:51:19.803Z,56.30
2018-04-15T15:53:47.277Z,57.30
2018-04-15T15:56:14.797Z,54.70
2018-04-15T15:58:42.299Z,55.40
2018-04-15T16:01:09.765Z,54.90
2018-04-15T16:03:37.283Z,57.90
2018-04-15T16:06:05.367Z,58.20
2018-04-15T16:08:32.895Z,57.10
2018-04-15T16:11:01.158Z,57.40
2018-04-15T16:13:29.385Z,56.80
2018-04-15T16:15:56.853Z,56.80
2018-04-15T16:18:24.341Z,59.10
2018-04-15T16:20:51.821Z,58.40
2018-04-15T16:23:19.282Z,59.90
2018-04-15T16:25:46.815Z,56.80
2018-04-15T16:28:14.269Z,56.80
2018-04-15T16:30:42.537Z,58.30
2018-04-15T16:33:10.056Z,57.80
2018-04-15T16:35:37.514Z,56.90
2018-04-15T16:38:04.990Z,56.90
2018-04-15T16:40:32.507Z,56.60
2018-04-15T16:43:00.004Z,55.00
2018-04-15T16:45:27.505Z,56.30
2018-04-15T16:47:55.815Z,57.90
2018-04-15T16:50:23.274Z,57.90
2018-04-15T16:52:50.734Z,55.60
2018-04-15T16:55:18.354Z,54.00
2018-04-15T16:57:46.593Z,57.80
2018-04-15T17:00:14.819Z,58.50
2018-04-15T17:02:42.347Z,58.50
2018-04-15T17:05:09.874Z,58.80
2018-04-15T17:07:37.354Z,58.70
2018-04-15T17:10:04.880Z,60.60
2018-04-15T17:12:32.373Z,58.80
2018-04-15T17:14:59.880Z,59.50
2018-04-15T17:17:27.358Z,58.30
2018-04-15T17:19:54.831Z,59.80
2018-04-15T17:22:22.308Z,59.20
2018-04-15T17:24:49.830Z,60.00
2018-04-15T17:27:17.304Z,62.30
2018-04-15T17:29:44.770Z,63.30
2018-04-15T17:32:12.281Z,63.50
2018-04-15T17:34:40.478Z,66.20
2018-04-15T17:37:07.959Z,66.10
2018-04-15T17:39:35.459Z,67.20
2018-04-15T17:42:02.925Z,67.50
2018-04-15T17:44:30.436Z,69.50
2018-04-15T17:46:57.940Z,70.00
2018-04-15T17:49:25.431Z,70.10
2018-04-15T17:51:52.934Z,68.40
2018-04-15T17:54:21.195Z,69.10
2018-04-15T17:56:48.721Z,69.00
2018-04-15T17:59:16.214Z,69.30
2018-04-15T18:01:44.475Z,70.10
2018-04-15T18:04:11.984Z,70.10
2018-04-15T18:06:39.485Z,70.00
2018-04-15T18:09:06.971Z,69.80
2018-04-15T18:11:34.459Z,70.10
2018-04-15T18:14:01.925Z,73.40
2018-04-15T18:16:29.401Z,75.40
2018-04-15T18:18:56.873Z,75.80
2018-04-15T18:21:24.334Z,77.00
2018-04-15T18:23:51.891Z,77.20
2018-04-15T18:26:19.354Z,76.40
2018-04-15T18:28:46.855Z,76.10
2018-04-15T18:31:14.355Z,77.90
2018-04-15T18:33:41.866Z,79.10
2018-04-15T18:36:09.323Z,79.50
2018-04-15T18:38:37.156Z,80.20
2018-04-15T18:41:04.609Z,80.40
2018-04-15T18:43:32.164Z,80.40
2018-04-15T18:45:59.684Z,80.70
2018-04-15T18:48:27.187Z,80.90
2018-04-15T18:50:55.459Z,82.10
2018-04-15T18:53:22.970Z,82.10
2018-04-15T18:55:50.471Z,83.00
2018-04-15T18:58:18.005Z,83.70
2018-04-15T19:00:45.476Z,84.60
2018-04-15T19:03:13.011Z,84.80
2018-04-15T19:05:40.494Z,85.10
2018-04-15T19:08:08.012Z,86.10
2018-04-15T19:10:35.515Z,87.50
2018-04-15T19:13:03.016Z,87.80
2018-04-15T19:15:30.527Z,88.40
2018-04-15T19:17:57.986Z,88.20
2018-04-15T19:20:25.520Z,87.80
2018-04-15T19:22:53.005Z,87.80
2018-04-15T19:25:20.468Z,87.80
2018-04-15T19:27:47.949Z,88.00
2018-04-15T19:30:16.227Z,88.60
2018-04-15T19:32:43.689Z,88.60
2018-04-15T19:35:11.194Z,89.30
2018-04-15T19:37:38.699Z,89.80
2018-04-15T19:40:06.228Z,90.20
2018-04-15T19:42:33.731Z,90.30
2018-04-15T19:45:01.245Z,90.60
2018-04-15T19:47:28.764Z,90.50
2018-04-15T19:49:56.269Z,89.70
2018-04-15T19:52:24.555Z,88.40
2018-04-15T19:54:52.781Z,87.80
2018-04-15T19:57:20.278Z,87.70
2018-04-15T19:59:48.591Z,87.70
2018-04-15T20:02:16.043Z,87.60
2018-04-15T20:04:43.541Z,89.40
2018-04-15T20:07:11.027Z,90.40
2018-04-15T20:09:39.320Z,89.70
2018-04-15T20:12:06.895Z,89.70
2018-04-15T20:14:35.176Z,89.50
2018-04-15T20:17:02.712Z,89.50
2018-04-15T20:19:30.191Z,89.50
2018-04-15T20:21:57.691Z,90.20
2018-04-15T20:24:25.170Z,90.40
2018-04-15T20:26:53.401Z,90.80
2018-04-15T20:29:20.889Z,90.80
2018-04-15T20:31:48.387Z,91.00
2018-04-15T20:34:15.883Z,90.80
2018-04-15T20:36:43.391Z,91.20
2018-04-15T20:39:10.908Z,91.80
2018-04-15T20:41:38.407Z,92.40
2018-04-15T20:44:06.714Z,93.40
2018-04-15T20:46:34.175Z,93.30
2018-04-15T20:49:01.677Z,93.40
2018-04-15T20:51:29.976Z,92.90
2018-04-15T20:53:57.435Z,92.90
2018-04-15T20:56:24.908Z,93.00
2018-04-15T20:58:52.376Z,93.10
2018-04-15T21:01:19.874Z,93.10
2018-04-15T21:03:47.422Z,93.10
2018-04-15T21:06:14.931Z,93.10
2018-04-15T21:08:42.456Z,93.30
2018-04-15T21:11:09.996Z,93.50
2018-04-15T21:13:37.720Z,93.60
2018-04-15T21:16:05.196Z,93.60
2018-04-15T21:18:32.673Z,93.80
2018-04-15T21:21:00.172Z,93.70
2018-04-15T21:23:28.422Z,94.10
2018-04-15T21:25:55.886Z,94.10
2018-04-15T21:28:24.113Z,94.40
2018-04-15T21:30:51.607Z,94.40
2018-04-15T21:33:19.075Z,94.30
2018-04-15T21:35:47.360Z,94.20
2018-04-15T21:38:15.701Z,93.90
2018-04-15T21:40:43.832Z,93.90
2018-04-15T21:43:11.346Z,93.60
2018-04-15T21:45:39.652Z,93.60
2018-04-15T21:48:07.928Z,93.60
2018-04-15T21:50:36.342Z,93.60
2018-04-15T21:53:03.985Z,93.40
2018-04-15T21:55:31.571Z,93.50
2018-04-15T21:57:59.091Z,93.60
2018-04-15T22:00:26.624Z,93.50
2018-04-15T22:02:54.214Z,93.40
2018-04-15T22:05:22.196Z,93.50
2018-04-15T22:07:49.719Z,93.60
2018-04-15T22:10:17.223Z,93.80
2018-04-15T22:12:45.649Z,94.00
2018-04-15T22:15:13.133Z,94.20
2018-04-15T22:17:40.921Z,94.60
2018-04-15T22:20:08.420Z,94.30
2018-04-15T22:22:35.949Z,94.70
2018-04-15T22:25:03.416Z,94.30
2018-04-15T22:27:30.894Z,94.10
2018-04-15T22:29:58.481Z,94.00
2018-04-15T22:32:25.953Z,94.00
2018-04-15T22:34:53.461Z,94.00
2018-04-15T22:37:20.941Z,94.20
2018-04-15T22:39:49.223Z,94.30
2018-04-15T22:42:16.725Z,94.30
2018-04-15T22:44:45.475Z,94.30
2018-04-15T22:47:13.707Z,94.60
2018-04-15T22:49:43.098Z,94.50
2018-04-15T22:52:10.624Z,94.60
2018-04-15T22:54:38.192Z,94.20
2018-04-15T22:57:11.305Z,93.80
2018-04-15T22:59:38.817Z,93.80
2018-04-15T23:02:07.425Z,93.90
2018-04-15T23:04:35.735Z,93.90
2018-04-15T23:07:03.246Z,93.90
2018-04-15T23:09:30.764Z,94.00
2018-04-15T23:11:58.285Z,93.80
2018-04-15T23:14:25.795Z,93.60
2018-04-15T23:16:54.076Z,93.60
2018-04-15T23:19:22.340Z,93.50
2018-04-15T23:21:49.835Z,93.50
2018-04-15T23:24:17.887Z,93.50
2018-04-15T23:26:46.189Z,93.30
2018-04-15T23:29:14.557Z,93.30
2018-04-15T23:31:42.085Z,93.30
2018-04-15T23:34:11.057Z,93.90
2018-04-15T23:36:39.361Z,93.90
2018-04-15T23:39:07.644Z,94.30
2018-04-15T23:41:36.511Z,94.40
2018-04-15T23:44:04.860Z,94.40
2018-04-15T23:46:32.387Z,94.60
2018-04-15T23:48:59.862Z,94.30
2018-04-15T23:51:27.851Z,94.40
2018-04-15T23:53:55.343Z,94.10
2018-04-15T23:56:24.675Z,94.10
2018-04-15T23:58:52.138Z,94.10
